sensor_id;sensor_type;location;lat;lon;timestamp;temperature;humidity
65472;DHT22;52068;50.710;14.492;2023-05-10T00:01:41;22.93;44.24
65472;DHT22;52068;50.710;14.492;2023-05-10T00:04:06;22.93;44.18
65472;DHT22;52068;50.710;14.492;2023-05-10T00:06:32;22.94;44.08
65472;DHT22;52068;50.710;14.492;2023-05-10T00:08:57;22.94;44.02
65472;DHT22;52068;50.710;14.492;2023-05-10T00:11:23;22.94;44.11
65472;DHT22;52068;50.710;14.492;2023-05-10T00:13:48;22.94;44.08
65472;DHT22;52068;50.710;14.492;2023-05-10T00:16:13;22.94;43.82
65472;DHT22;52068;50.710;14.492;2023-05-10T00:18:39;22.93;44.09
65472;DHT22;52068;50.710;14.492;2023-05-10T00:21:05;22.96;44.16
65472;DHT22;52068;50.710;14.492;2023-05-10T00:23:30;22.93;44.15
65472;DHT22;52068;50.710;14.492;2023-05-10T00:25:55;22.90;44.10
65472;DHT22;52068;50.710;14.492;2023-05-10T00:28:21;22.92;44.10
65472;DHT22;52068;50.710;14.492;2023-05-10T00:30:46;22.93;44.05
65472;DHT22;52068;50.710;14.492;2023-05-10T00:33:11;22.89;44.22
65472;DHT22;52068;50.710;14.492;2023-05-10T00:35:37;22.92;44.26
65472;DHT22;52068;50.710;14.492;2023-05-10T00:38:03;22.89;44.47
65472;DHT22;52068;50.710;14.492;2023-05-10T00:40:28;22.87;44.77
65472;DHT22;52068;50.710;14.492;2023-05-10T00:42:53;22.90;44.69
65472;DHT22;52068;50.710;14.492;2023-05-10T00:45:19;22.89;44.57
65472;DHT22;52068;50.710;14.492;2023-05-10T00:47:44;22.89;44.63
65472;DHT22;52068;50.710;14.492;2023-05-10T00:50:09;22.89;44.93
65472;DHT22;52068;50.710;14.492;2023-05-10T00:52:35;22.87;44.97
65472;DHT22;52068;50.710;14.492;2023-05-10T00:55:00;22.86;45.01
65472;DHT22;52068;50.710;14.492;2023-05-10T00:57:26;22.86;45.10
65472;DHT22;52068;50.710;14.492;2023-05-10T00:59:51;22.89;45.11
65472;DHT22;52068;50.710;14.492;2023-05-10T01:02:17;22.89;45.03
65472;DHT22;52068;50.710;14.492;2023-05-10T01:04:42;22.87;45.29
65472;DHT22;52068;50.710;14.492;2023-05-10T01:07:08;22.90;45.23
65472;DHT22;52068;50.710;14.492;2023-05-10T01:09:33;22.89;45.11
65472;DHT22;52068;50.710;14.492;2023-05-10T01:11:59;22.90;45.06
65472;DHT22;52068;50.710;14.492;2023-05-10T01:14:24;22.89;44.94
65472;DHT22;52068;50.710;14.492;2023-05-10T01:16:50;22.93;44.87
65472;DHT22;52068;50.710;14.492;2023-05-10T01:19:23;22.92;44.88
65472;DHT22;52068;50.710;14.492;2023-05-10T01:27:10;22.93;44.57
65472;DHT22;52068;50.710;14.492;2023-05-10T01:32:31;22.90;44.50
65472;DHT22;52068;50.710;14.492;2023-05-10T01:35:06;22.92;44.55
65472;DHT22;52068;50.710;14.492;2023-05-10T01:42:36;22.93;44.29
65472;DHT22;52068;50.710;14.492;2023-05-10T01:45:08;22.92;44.33
65472;DHT22;52068;50.710;14.492;2023-05-10T01:47:43;22.92;44.50
65472;DHT22;52068;50.710;14.492;2023-05-10T01:50:15;22.90;44.50
65472;DHT22;52068;50.710;14.492;2023-05-10T01:52:42;22.89;44.40
65472;DHT22;52068;50.710;14.492;2023-05-10T01:55:11;22.92;44.38
65472;DHT22;52068;50.710;14.492;2023-05-10T01:57:39;22.92;44.53
65472;DHT22;52068;50.710;14.492;2023-05-10T02:00:05;22.89;44.58
65472;DHT22;52068;50.710;14.492;2023-05-10T02:02:33;22.92;44.56
65472;DHT22;52068;50.710;14.492;2023-05-10T02:05:00;22.89;44.70
65472;DHT22;52068;50.710;14.492;2023-05-10T02:07:26;22.90;44.70
65472;DHT22;52068;50.710;14.492;2023-05-10T02:09:51;22.89;44.68
65472;DHT22;52068;50.710;14.492;2023-05-10T02:12:17;22.87;44.88
65472;DHT22;52068;50.710;14.492;2023-05-10T02:14:43;22.87;44.76
65472;DHT22;52068;50.710;14.492;2023-05-10T02:17:09;22.87;44.78
65472;DHT22;52068;50.710;14.492;2023-05-10T02:19:35;22.86;45.03
65472;DHT22;52068;50.710;14.492;2023-05-10T02:22:01;22.86;45.07
65472;DHT22;52068;50.710;14.492;2023-05-10T02:24:28;22.86;45.10
65472;DHT22;52068;50.710;14.492;2023-05-10T02:26:54;22.87;45.15
65472;DHT22;52068;50.710;14.492;2023-05-10T02:29:20;22.86;45.20
65472;DHT22;52068;50.710;14.492;2023-05-10T02:31:48;22.84;45.30
65472;DHT22;52068;50.710;14.492;2023-05-10T02:34:15;22.86;45.46
65472;DHT22;52068;50.710;14.492;2023-05-10T02:36:41;22.83;45.37
65472;DHT22;52068;50.710;14.492;2023-05-10T02:39:06;22.82;45.71
65472;DHT22;52068;50.710;14.492;2023-05-10T02:41:35;22.83;45.53
65472;DHT22;52068;50.710;14.492;2023-05-10T02:44:01;22.82;45.66
65472;DHT22;52068;50.710;14.492;2023-05-10T02:46:27;22.86;45.63
65472;DHT22;52068;50.710;14.492;2023-05-10T02:48:53;22.84;45.54
65472;DHT22;52068;50.710;14.492;2023-05-10T02:51:18;22.82;45.44
65472;DHT22;52068;50.710;14.492;2023-05-10T02:53:45;22.80;45.45
65472;DHT22;52068;50.710;14.492;2023-05-10T02:56:13;22.84;45.32
65472;DHT22;52068;50.710;14.492;2023-05-10T02:58:39;22.84;45.18
65472;DHT22;52068;50.710;14.492;2023-05-10T03:01:05;22.80;45.37
65472;DHT22;52068;50.710;14.492;2023-05-10T03:03:32;22.79;44.84
65472;DHT22;52068;50.710;14.492;2023-05-10T03:05:57;22.80;44.74
65472;DHT22;52068;50.710;14.492;2023-05-10T03:08:23;22.80;44.96
65472;DHT22;52068;50.710;14.492;2023-05-10T03:13:31;22.76;45.21
65472;DHT22;52068;50.710;14.492;2023-05-10T03:16:08;22.76;44.83
65472;DHT22;52068;50.710;14.492;2023-05-10T03:18:37;22.74;45.22
65472;DHT22;52068;50.710;14.492;2023-05-10T03:21:05;22.73;45.55
65472;DHT22;52068;50.710;14.492;2023-05-10T03:23:39;22.73;45.36
65472;DHT22;52068;50.710;14.492;2023-05-10T03:26:05;22.76;45.39
65472;DHT22;52068;50.710;14.492;2023-05-10T03:28:32;22.72;45.33
65472;DHT22;52068;50.710;14.492;2023-05-10T03:30:58;22.73;45.37
65472;DHT22;52068;50.710;14.492;2023-05-10T03:33:24;22.72;45.21
65472;DHT22;52068;50.710;14.492;2023-05-10T03:35:49;22.70;45.35
65472;DHT22;52068;50.710;14.492;2023-05-10T03:38:14;22.73;45.00
65472;DHT22;52068;50.710;14.492;2023-05-10T03:40:40;22.72;45.10
65472;DHT22;52068;50.710;14.492;2023-05-10T03:43:05;22.72;45.11
65472;DHT22;52068;50.710;14.492;2023-05-10T03:45:31;22.70;44.79
65472;DHT22;52068;50.710;14.492;2023-05-10T03:47:59;22.72;45.23
65472;DHT22;52068;50.710;14.492;2023-05-10T03:50:24;22.69;45.28
65472;DHT22;52068;50.710;14.492;2023-05-10T03:52:49;22.69;45.33
65472;DHT22;52068;50.710;14.492;2023-05-10T03:55:15;22.66;45.35
65472;DHT22;52068;50.710;14.492;2023-05-10T03:57:41;22.67;45.50
65472;DHT22;52068;50.710;14.492;2023-05-10T04:00:06;22.66;45.40
65472;DHT22;52068;50.710;14.492;2023-05-10T04:02:32;22.66;45.33
65472;DHT22;52068;50.710;14.492;2023-05-10T04:04:57;22.63;45.49
65472;DHT22;52068;50.710;14.492;2023-05-10T04:07:22;22.66;45.44
65472;DHT22;52068;50.710;14.492;2023-05-10T04:09:48;22.63;45.53
65472;DHT22;52068;50.710;14.492;2023-05-10T04:12:13;22.64;45.62
65472;DHT22;52068;50.710;14.492;2023-05-10T04:14:38;22.63;45.64
65472;DHT22;52068;50.710;14.492;2023-05-10T04:17:03;22.64;45.62
65472;DHT22;52068;50.710;14.492;2023-05-10T04:19:29;22.64;45.67
65472;DHT22;52068;50.710;14.492;2023-05-10T04:21:55;22.69;45.64
65472;DHT22;52068;50.710;14.492;2023-05-10T04:24:20;22.69;45.52
65472;DHT22;52068;50.710;14.492;2023-05-10T04:26:45;22.69;45.52
65472;DHT22;52068;50.710;14.492;2023-05-10T04:29:11;22.69;45.38
65472;DHT22;52068;50.710;14.492;2023-05-10T04:31:36;22.66;45.35
65472;DHT22;52068;50.710;14.492;2023-05-10T04:34:01;22.69;45.44
65472;DHT22;52068;50.710;14.492;2023-05-10T04:36:27;22.69;45.29
65472;DHT22;52068;50.710;14.492;2023-05-10T04:38:52;22.67;45.05
65472;DHT22;52068;50.710;14.492;2023-05-10T04:41:18;22.66;44.96
65472;DHT22;52068;50.710;14.492;2023-05-10T04:43:43;22.67;44.84
65472;DHT22;52068;50.710;14.492;2023-05-10T04:46:08;22.69;44.93
65472;DHT22;52068;50.710;14.492;2023-05-10T04:48:34;22.64;44.99
65472;DHT22;52068;50.710;14.492;2023-05-10T04:50:59;22.64;44.94
65472;DHT22;52068;50.710;14.492;2023-05-10T04:53:24;22.67;44.80
65472;DHT22;52068;50.710;14.492;2023-05-10T04:55:49;22.69;44.85
65472;DHT22;52068;50.710;14.492;2023-05-10T04:58:15;22.70;44.70
65472;DHT22;52068;50.710;14.492;2023-05-10T05:00:40;22.69;44.48
65472;DHT22;52068;50.710;14.492;2023-05-10T05:03:06;22.70;44.58
65472;DHT22;52068;50.710;14.492;2023-05-10T05:05:31;22.73;45.17
65472;DHT22;52068;50.710;14.492;2023-05-10T05:07:57;22.72;45.44
65472;DHT22;52068;50.710;14.492;2023-05-10T05:10:22;22.72;45.41
65472;DHT22;52068;50.710;14.492;2023-05-10T05:12:47;22.70;45.28
65472;DHT22;52068;50.710;14.492;2023-05-10T05:15:12;22.73;45.26
65472;DHT22;52068;50.710;14.492;2023-05-10T05:17:38;22.70;45.26
65472;DHT22;52068;50.710;14.492;2023-05-10T05:20:03;22.74;45.10
65472;DHT22;52068;50.710;14.492;2023-05-10T05:22:29;22.70;44.95
65472;DHT22;52068;50.710;14.492;2023-05-10T05:24:54;22.73;45.08
65472;DHT22;52068;50.710;14.492;2023-05-10T05:27:20;22.72;44.91
65472;DHT22;52068;50.710;14.492;2023-05-10T05:29:52;22.77;45.12
65472;DHT22;52068;50.710;14.492;2023-05-10T05:32:17;22.79;45.22
65472;DHT22;52068;50.710;14.492;2023-05-10T05:34:46;22.79;45.20
65472;DHT22;52068;50.710;14.492;2023-05-10T05:37:14;22.80;45.20
65472;DHT22;52068;50.710;14.492;2023-05-10T05:39:40;22.80;45.10
65472;DHT22;52068;50.710;14.492;2023-05-10T05:42:05;22.82;45.15
65472;DHT22;52068;50.710;14.492;2023-05-10T05:44:30;22.82;45.12
65472;DHT22;52068;50.710;14.492;2023-05-10T05:46:56;22.86;45.05
65472;DHT22;52068;50.710;14.492;2023-05-10T05:49:21;22.87;44.99
65472;DHT22;52068;50.710;14.492;2023-05-10T05:51:46;22.90;44.99
65472;DHT22;52068;50.710;14.492;2023-05-10T05:54:14;22.89;44.70
65472;DHT22;52068;50.710;14.492;2023-05-10T05:56:39;22.93;45.01
65472;DHT22;52068;50.710;14.492;2023-05-10T05:59:04;22.96;44.91
65472;DHT22;52068;50.710;14.492;2023-05-10T06:01:29;22.92;44.73
65472;DHT22;52068;50.710;14.492;2023-05-10T06:03:55;22.96;43.94
65472;DHT22;52068;50.710;14.492;2023-05-10T06:06:20;22.96;44.02
65472;DHT22;52068;50.710;14.492;2023-05-10T06:08:45;22.96;43.99
65472;DHT22;52068;50.710;14.492;2023-05-10T06:11:10;22.97;43.90
65472;DHT22;52068;50.710;14.492;2023-05-10T06:13:36;23.00;43.62
65472;DHT22;52068;50.710;14.492;2023-05-10T06:16:02;23.00;43.59
65472;DHT22;52068;50.710;14.492;2023-05-10T06:18:27;22.99;43.35
65472;DHT22;52068;50.710;14.492;2023-05-10T06:20:52;23.02;43.48
65472;DHT22;52068;50.710;14.492;2023-05-10T06:23:17;23.04;43.46
65472;DHT22;52068;50.710;14.492;2023-05-10T06:25:43;23.04;43.49
65472;DHT22;52068;50.710;14.492;2023-05-10T06:28:08;23.06;43.44
65472;DHT22;52068;50.710;14.492;2023-05-10T06:30:35;23.04;43.38
65472;DHT22;52068;50.710;14.492;2023-05-10T06:33:00;23.08;43.33
65472;DHT22;52068;50.710;14.492;2023-05-10T06:35:25;23.07;43.31
65472;DHT22;52068;50.710;14.492;2023-05-10T06:37:51;23.06;43.50
65472;DHT22;52068;50.710;14.492;2023-05-10T06:40:16;23.10;43.60
65472;DHT22;52068;50.710;14.492;2023-05-10T06:42:42;23.10;43.16
65472;DHT22;52068;50.710;14.492;2023-05-10T06:45:07;23.08;43.36
65472;DHT22;52068;50.710;14.492;2023-05-10T06:47:33;23.08;43.36
65472;DHT22;52068;50.710;14.492;2023-05-10T06:49:58;23.11;42.85
65472;DHT22;52068;50.710;14.492;2023-05-10T06:52:24;23.11;42.89
65472;DHT22;52068;50.710;14.492;2023-05-10T06:54:49;23.10;42.75
65472;DHT22;52068;50.710;14.492;2023-05-10T06:57:14;23.10;42.96
65472;DHT22;52068;50.710;14.492;2023-05-10T06:59:40;23.10;42.80
65472;DHT22;52068;50.710;14.492;2023-05-10T07:02:05;23.06;42.49
65472;DHT22;52068;50.710;14.492;2023-05-10T07:04:30;23.07;42.54
65472;DHT22;52068;50.710;14.492;2023-05-10T07:06:56;23.08;42.53
65472;DHT22;52068;50.710;14.492;2023-05-10T07:09:22;23.07;42.58
65472;DHT22;52068;50.710;14.492;2023-05-10T07:11:49;23.10;42.79
65472;DHT22;52068;50.710;14.492;2023-05-10T07:14:14;23.07;42.54
65472;DHT22;52068;50.710;14.492;2023-05-10T07:16:40;23.06;42.44
65472;DHT22;52068;50.710;14.492;2023-05-10T07:19:05;23.06;42.62
65472;DHT22;52068;50.710;14.492;2023-05-10T07:21:31;23.06;42.36
65472;DHT22;52068;50.710;14.492;2023-05-10T07:23:56;23.07;42.53
65472;DHT22;52068;50.710;14.492;2023-05-10T07:26:21;23.07;42.41
65472;DHT22;52068;50.710;14.492;2023-05-10T07:28:47;23.04;42.26
65472;DHT22;52068;50.710;14.492;2023-05-10T07:31:12;23.04;42.61
65472;DHT22;52068;50.710;14.492;2023-05-10T07:33:38;23.06;42.45
65472;DHT22;52068;50.710;14.492;2023-05-10T07:36:03;23.04;42.75
65472;DHT22;52068;50.710;14.492;2023-05-10T07:38:28;23.06;42.87
65472;DHT22;52068;50.710;14.492;2023-05-10T07:40:54;23.07;42.66
65472;DHT22;52068;50.710;14.492;2023-05-10T07:43:19;23.06;42.68
65472;DHT22;52068;50.710;14.492;2023-05-10T07:45:44;23.07;42.83
65472;DHT22;52068;50.710;14.492;2023-05-10T07:48:09;23.10;42.78
65472;DHT22;52068;50.710;14.492;2023-05-10T07:50:35;23.13;42.67
65472;DHT22;52068;50.710;14.492;2023-05-10T07:53:00;23.10;42.66
65472;DHT22;52068;50.710;14.492;2023-05-10T07:55:25;23.14;41.74
65472;DHT22;52068;50.710;14.492;2023-05-10T07:57:51;23.11;40.64
65472;DHT22;52068;50.710;14.492;2023-05-10T08:00:16;23.14;39.90
65472;DHT22;52068;50.710;14.492;2023-05-10T08:02:42;23.14;39.38
65472;DHT22;52068;50.710;14.492;2023-05-10T08:05:07;23.11;39.03
65472;DHT22;52068;50.710;14.492;2023-05-10T08:07:33;23.10;38.54
65472;DHT22;52068;50.710;14.492;2023-05-10T08:09:58;23.13;38.59
65472;DHT22;52068;50.710;14.492;2023-05-10T08:12:24;23.13;38.59
65472;DHT22;52068;50.710;14.492;2023-05-10T08:14:49;23.10;37.23
65472;DHT22;52068;50.710;14.492;2023-05-10T08:17:14;23.07;35.15
65472;DHT22;52068;50.710;14.492;2023-05-10T08:19:39;22.97;35.21
65472;DHT22;52068;50.710;14.492;2023-05-10T08:22:05;22.96;35.81
65472;DHT22;52068;50.710;14.492;2023-05-10T08:24:30;22.93;35.49
65472;DHT22;52068;50.710;14.492;2023-05-10T08:26:55;22.92;35.58
65472;DHT22;52068;50.710;14.492;2023-05-10T08:29:21;22.93;35.67
65472;DHT22;52068;50.710;14.492;2023-05-10T08:31:46;22.93;36.00
65472;DHT22;52068;50.710;14.492;2023-05-10T08:34:11;22.93;36.09
65472;DHT22;52068;50.710;14.492;2023-05-10T08:36:36;22.92;35.94
65472;DHT22;52068;50.710;14.492;2023-05-10T08:39:02;22.93;36.11
65472;DHT22;52068;50.710;14.492;2023-05-10T08:41:27;22.94;36.49
65472;DHT22;52068;50.710;14.492;2023-05-10T08:43:53;22.93;36.34
65472;DHT22;52068;50.710;14.492;2023-05-10T08:46:19;22.93;36.03
65472;DHT22;52068;50.710;14.492;2023-05-10T08:48:45;22.90;36.21
65472;DHT22;52068;50.710;14.492;2023-05-10T08:51:14;22.93;36.45
65472;DHT22;52068;50.710;14.492;2023-05-10T08:53:40;22.94;36.70
65472;DHT22;52068;50.710;14.492;2023-05-10T08:56:06;22.94;37.10
65472;DHT22;52068;50.710;14.492;2023-05-10T08:58:31;22.96;37.26
65472;DHT22;52068;50.710;14.492;2023-05-10T09:00:57;22.94;37.12
65472;DHT22;52068;50.710;14.492;2023-05-10T09:03:22;22.94;37.02
65472;DHT22;52068;50.710;14.492;2023-05-10T09:05:48;22.94;36.80
65472;DHT22;52068;50.710;14.492;2023-05-10T09:08:13;22.96;36.65
65472;DHT22;52068;50.710;14.492;2023-05-10T09:10:41;22.94;36.49
65472;DHT22;52068;50.710;14.492;2023-05-10T09:13:08;22.94;36.51
65472;DHT22;52068;50.710;14.492;2023-05-10T09:15:34;22.96;36.51
65472;DHT22;52068;50.710;14.492;2023-05-10T09:18:00;22.94;36.56
65472;DHT22;52068;50.710;14.492;2023-05-10T09:20:27;22.93;36.44
65472;DHT22;52068;50.710;14.492;2023-05-10T09:22:52;22.94;36.30
65472;DHT22;52068;50.710;14.492;2023-05-10T09:25:17;22.94;36.16
65472;DHT22;52068;50.710;14.492;2023-05-10T09:27:46;22.93;36.27
65472;DHT22;52068;50.710;14.492;2023-05-10T09:30:33;22.96;36.36
65472;DHT22;52068;50.710;14.492;2023-05-10T09:32:58;22.96;36.27
65472;DHT22;52068;50.710;14.492;2023-05-10T09:35:24;22.97;36.28
65472;DHT22;52068;50.710;14.492;2023-05-10T09:37:50;22.96;36.17
65472;DHT22;52068;50.710;14.492;2023-05-10T09:40:17;22.96;36.04
65472;DHT22;52068;50.710;14.492;2023-05-10T09:42:44;22.94;36.14
65472;DHT22;52068;50.710;14.492;2023-05-10T09:45:15;22.94;36.03
65472;DHT22;52068;50.710;14.492;2023-05-10T09:47:40;22.90;36.05
65472;DHT22;52068;50.710;14.492;2023-05-10T09:50:06;22.93;35.92
65472;DHT22;52068;50.710;14.492;2023-05-10T09:52:45;22.94;35.95
65472;DHT22;52068;50.710;14.492;2023-05-10T09:55:11;22.93;36.17
65472;DHT22;52068;50.710;14.492;2023-05-10T09:57:37;22.96;35.93
65472;DHT22;52068;50.710;14.492;2023-05-10T10:00:02;22.96;35.86
65472;DHT22;52068;50.710;14.492;2023-05-10T10:02:29;22.93;35.92
65472;DHT22;52068;50.710;14.492;2023-05-10T10:04:55;22.94;36.09
65472;DHT22;52068;50.710;14.492;2023-05-10T10:07:22;22.94;36.19
65472;DHT22;52068;50.710;14.492;2023-05-10T10:09:47;22.94;36.54
65472;DHT22;52068;50.710;14.492;2023-05-10T10:12:12;22.96;36.79
65472;DHT22;52068;50.710;14.492;2023-05-10T10:14:38;23.00;36.94
65472;DHT22;52068;50.710;14.492;2023-05-10T10:17:03;22.99;36.56
65472;DHT22;52068;50.710;14.492;2023-05-10T10:19:28;22.99;36.41
65472;DHT22;52068;50.710;14.492;2023-05-10T10:21:55;23.00;36.48
65472;DHT22;52068;50.710;14.492;2023-05-10T10:24:20;23.02;36.57
65472;DHT22;52068;50.710;14.492;2023-05-10T10:26:45;23.02;36.66
65472;DHT22;52068;50.710;14.492;2023-05-10T10:29:21;23.00;36.58
65472;DHT22;52068;50.710;14.492;2023-05-10T10:34:25;23.02;36.55
65472;DHT22;52068;50.710;14.492;2023-05-10T10:36:54;23.03;36.54
65472;DHT22;52068;50.710;14.492;2023-05-10T10:39:19;23.06;36.58
65472;DHT22;52068;50.710;14.492;2023-05-10T10:41:52;23.03;36.47
65472;DHT22;52068;50.710;14.492;2023-05-10T10:44:24;23.04;35.86
65472;DHT22;52068;50.710;14.492;2023-05-10T10:54:52;23.06;36.53
65472;DHT22;52068;50.710;14.492;2023-05-10T10:57:18;23.04;36.15
65472;DHT22;52068;50.710;14.492;2023-05-10T10:59:44;23.04;35.72
65472;DHT22;52068;50.710;14.492;2023-05-10T11:02:09;23.04;35.70
65472;DHT22;52068;50.710;14.492;2023-05-10T11:04:42;23.07;35.62
65472;DHT22;52068;50.710;14.492;2023-05-10T11:07:18;23.04;35.92
65472;DHT22;52068;50.710;14.492;2023-05-10T11:09:44;23.03;35.92
65472;DHT22;52068;50.710;14.492;2023-05-10T11:12:10;23.04;35.90
65472;DHT22;52068;50.710;14.492;2023-05-10T11:14:35;23.07;36.03
65472;DHT22;52068;50.710;14.492;2023-05-10T11:17:00;23.08;36.28
65472;DHT22;52068;50.710;14.492;2023-05-10T11:19:27;23.07;36.05
65472;DHT22;52068;50.710;14.492;2023-05-10T11:24:30;23.06;36.04
65472;DHT22;52068;50.710;14.492;2023-05-10T11:26:56;23.06;35.70
65472;DHT22;52068;50.710;14.492;2023-05-10T11:29:21;23.06;35.74
65472;DHT22;52068;50.710;14.492;2023-05-10T11:31:46;23.07;35.78
65472;DHT22;52068;50.710;14.492;2023-05-10T11:34:28;23.10;35.62
65472;DHT22;52068;50.710;14.492;2023-05-10T11:36:55;23.08;35.77
65472;DHT22;52068;50.710;14.492;2023-05-10T11:39:21;23.11;36.06
65472;DHT22;52068;50.710;14.492;2023-05-10T11:41:50;23.07;36.09
65472;DHT22;52068;50.710;14.492;2023-05-10T11:44:15;23.10;35.70
65472;DHT22;52068;50.710;14.492;2023-05-10T11:46:41;23.14;36.02
65472;DHT22;52068;50.710;14.492;2023-05-10T11:49:06;23.15;36.16
65472;DHT22;52068;50.710;14.492;2023-05-10T11:51:33;23.20;36.43
65472;DHT22;52068;50.710;14.492;2023-05-10T11:53:58;23.21;36.75
65472;DHT22;52068;50.710;14.492;2023-05-10T11:56:23;23.24;37.01
65472;DHT22;52068;50.710;14.492;2023-05-10T11:58:54;23.30;37.26
65472;DHT22;52068;50.710;14.492;2023-05-10T12:01:20;23.34;37.41
65472;DHT22;52068;50.710;14.492;2023-05-10T12:03:46;23.37;37.48
65472;DHT22;52068;50.710;14.492;2023-05-10T12:06:11;23.40;37.64
65472;DHT22;52068;50.710;14.492;2023-05-10T12:08:37;23.45;37.68
65472;DHT22;52068;50.710;14.492;2023-05-10T12:11:09;23.47;37.94
65472;DHT22;52068;50.710;14.492;2023-05-10T12:13:40;23.52;37.93
65472;DHT22;52068;50.710;14.492;2023-05-10T12:16:12;23.55;38.11
65472;DHT22;52068;50.710;14.492;2023-05-10T12:18:38;23.57;38.13
65472;DHT22;52068;50.710;14.492;2023-05-10T12:21:04;23.57;38.02
65472;DHT22;52068;50.710;14.492;2023-05-10T12:23:30;23.59;38.07
65472;DHT22;52068;50.710;14.492;2023-05-10T12:26:01;23.62;38.16
65472;DHT22;52068;50.710;14.492;2023-05-10T12:28:26;23.66;38.12
65472;DHT22;52068;50.710;14.492;2023-05-10T12:30:54;23.65;38.11
65472;DHT22;52068;50.710;14.492;2023-05-10T12:33:20;23.66;38.13
65472;DHT22;52068;50.710;14.492;2023-05-10T12:35:46;23.69;38.21
65472;DHT22;52068;50.710;14.492;2023-05-10T12:38:27;23.74;38.10
65472;DHT22;52068;50.710;14.492;2023-05-10T12:40:55;23.72;38.16
65472;DHT22;52068;50.710;14.492;2023-05-10T12:43:20;23.75;38.12
65472;DHT22;52068;50.710;14.492;2023-05-10T12:45:46;23.78;38.00
65472;DHT22;52068;50.710;14.492;2023-05-10T12:48:13;23.78;38.10
65472;DHT22;52068;50.710;14.492;2023-05-10T12:50:39;23.79;38.07
65472;DHT22;52068;50.710;14.492;2023-05-10T12:53:04;23.81;38.10
65472;DHT22;52068;50.710;14.492;2023-05-10T12:55:29;23.82;38.06
65472;DHT22;52068;50.710;14.492;2023-05-10T12:57:55;23.85;38.12
65472;DHT22;52068;50.710;14.492;2023-05-10T13:00:20;23.86;38.16
65472;DHT22;52068;50.710;14.492;2023-05-10T13:02:45;23.86;38.23
65472;DHT22;52068;50.710;14.492;2023-05-10T13:05:11;23.85;38.29
65472;DHT22;52068;50.710;14.492;2023-05-10T13:07:38;23.88;38.27
65472;DHT22;52068;50.710;14.492;2023-05-10T13:10:03;23.89;38.31
65472;DHT22;52068;50.710;14.492;2023-05-10T13:12:28;23.86;38.33
65472;DHT22;52068;50.710;14.492;2023-05-10T13:14:54;23.86;38.36
65472;DHT22;52068;50.710;14.492;2023-05-10T13:17:19;23.88;38.37
65472;DHT22;52068;50.710;14.492;2023-05-10T13:19:45;23.86;38.37
65472;DHT22;52068;50.710;14.492;2023-05-10T13:22:10;23.89;38.33
65472;DHT22;52068;50.710;14.492;2023-05-10T13:24:35;23.88;38.34
65472;DHT22;52068;50.710;14.492;2023-05-10T13:27:00;23.85;38.43
65472;DHT22;52068;50.710;14.492;2023-05-10T13:29:26;23.86;38.47
65472;DHT22;52068;50.710;14.492;2023-05-10T13:31:51;23.84;38.43
65472;DHT22;52068;50.710;14.492;2023-05-10T13:34:16;23.85;38.45
65472;DHT22;52068;50.710;14.492;2023-05-10T13:36:45;23.88;38.52
65472;DHT22;52068;50.710;14.492;2023-05-10T13:39:10;23.88;38.45
65472;DHT22;52068;50.710;14.492;2023-05-10T13:41:35;23.86;38.53
65472;DHT22;52068;50.710;14.492;2023-05-10T13:44:01;23.89;38.50
65472;DHT22;52068;50.710;14.492;2023-05-10T13:46:27;23.88;38.47
65472;DHT22;52068;50.710;14.492;2023-05-10T13:48:52;23.89;38.48
65472;DHT22;52068;50.710;14.492;2023-05-10T13:51:17;23.89;38.55
65472;DHT22;52068;50.710;14.492;2023-05-10T13:53:43;23.86;38.67
65472;DHT22;52068;50.710;14.492;2023-05-10T13:56:08;23.88;38.64
65472;DHT22;52068;50.710;14.492;2023-05-10T13:58:33;23.86;38.64
65472;DHT22;52068;50.710;14.492;2023-05-10T14:00:59;23.85;38.72
65472;DHT22;52068;50.710;14.492;2023-05-10T14:03:25;23.84;38.65
65472;DHT22;52068;50.710;14.492;2023-05-10T14:05:50;23.85;38.72
65472;DHT22;52068;50.710;14.492;2023-05-10T14:08:15;23.85;38.70
65472;DHT22;52068;50.710;14.492;2023-05-10T14:10:41;23.86;38.63
65472;DHT22;52068;50.710;14.492;2023-05-10T14:13:06;23.88;38.73
65472;DHT22;52068;50.710;14.492;2023-05-10T14:15:31;23.85;38.77
65472;DHT22;52068;50.710;14.492;2023-05-10T14:17:56;23.84;38.81
65472;DHT22;52068;50.710;14.492;2023-05-10T14:20:22;23.82;38.78
65472;DHT22;52068;50.710;14.492;2023-05-10T14:22:47;23.82;38.81
65472;DHT22;52068;50.710;14.492;2023-05-10T14:25:13;23.84;38.89
65472;DHT22;52068;50.710;14.492;2023-05-10T14:27:38;23.82;38.87
65472;DHT22;52068;50.710;14.492;2023-05-10T14:30:03;23.82;38.87
65472;DHT22;52068;50.710;14.492;2023-05-10T14:32:29;23.84;38.95
65472;DHT22;52068;50.710;14.492;2023-05-10T14:34:54;23.84;38.91
65472;DHT22;52068;50.710;14.492;2023-05-10T14:37:19;23.84;38.94
65472;DHT22;52068;50.710;14.492;2023-05-10T14:39:44;23.82;38.97
65472;DHT22;52068;50.710;14.492;2023-05-10T14:42:10;23.82;39.06
65472;DHT22;52068;50.710;14.492;2023-05-10T14:44:35;23.82;39.08
65472;DHT22;52068;50.710;14.492;2023-05-10T14:47:00;23.78;39.06
65472;DHT22;52068;50.710;14.492;2023-05-10T14:49:26;23.81;39.20
65472;DHT22;52068;50.710;14.492;2023-05-10T14:51:51;23.79;39.10
65472;DHT22;52068;50.710;14.492;2023-05-10T14:54:17;23.79;39.15
65472;DHT22;52068;50.710;14.492;2023-05-10T14:56:42;23.82;39.16
65472;DHT22;52068;50.710;14.492;2023-05-10T14:59:07;23.81;39.26
65472;DHT22;52068;50.710;14.492;2023-05-10T15:01:33;23.81;39.22
65472;DHT22;52068;50.710;14.492;2023-05-10T15:04:00;23.84;39.29
65472;DHT22;52068;50.710;14.492;2023-05-10T15:06:32;23.84;39.19
65472;DHT22;52068;50.710;14.492;2023-05-10T15:08:57;23.84;38.98
65472;DHT22;52068;50.710;14.492;2023-05-10T15:11:22;23.84;39.18
65472;DHT22;52068;50.710;14.492;2023-05-10T15:13:48;23.86;39.14
65472;DHT22;52068;50.710;14.492;2023-05-10T15:16:13;23.86;39.27
65472;DHT22;52068;50.710;14.492;2023-05-10T15:18:38;23.88;39.27
65472;DHT22;52068;50.710;14.492;2023-05-10T15:21:03;23.89;39.46
65472;DHT22;52068;50.710;14.492;2023-05-10T15:23:29;23.89;39.48
65472;DHT22;52068;50.710;14.492;2023-05-10T15:25:55;23.86;39.36
65472;DHT22;52068;50.710;14.492;2023-05-10T15:28:21;23.86;39.44
65472;DHT22;52068;50.710;14.492;2023-05-10T15:30:46;23.85;39.55
65472;DHT22;52068;50.710;14.492;2023-05-10T15:33:11;23.85;39.59
65472;DHT22;52068;50.710;14.492;2023-05-10T15:35:36;23.86;39.34
65472;DHT22;52068;50.710;14.492;2023-05-10T15:38:03;23.85;39.56